Airfield :
LOGIN :

Register | Disclaimer

   EN    FR    IT 

 










Legend :    VFR   Marginal VFR   IFR   Intensive IFR   Very Intensive IFR
Visi :
Ceiling :
>= 8 km
>= 3000ft
5 to 8 km
1000 to 3000 ft
1500m to 5 km
500 to 1000 ft
800 to 1500m
200 to 500 ft
< 800m
< 200 ft
Symbols :   Thunderstorms  Fog  Heavy snow  Heavy precipitations  Wind > 20 kt
SIGMETs :     Misc.  Thunderstorms  Icing  Turbulence  Mountain Waves  Volcanic Ashes







- Airport Elevation : 56 ft
- IATA code : ODE


EKOD - Odense

CURRENT METAR :
  • 131550Z 21009KT 9999 BKN018 BKN030 10/09 Q1016

EXPIRED METARs :
  • 131450Z 21012KT 190V250 9999 BKN015 BKN030 10/09 Q1016
  • 131420Z 21011KT 9999 BKN015 BKN030 10/09 Q1016
  • 131250Z 20010KT 170V230 9999 -SHRA BKN013 BKN030 10/09 Q1015

TAF TAF EKOD
Valid from the 13 at 12:00 until the 13 at 17:00 UTC


131158Z 1312/1317 20012KT 8000 SCT010 BKN015
TEMPO 1312/1317 3000 SHRAGS BKN008 BKN015CB
No reported NOTAMs for that airfield.



MET'MAP, your aeronautical weather chart ! - Copyright ORBIFLY December 2007 - Disclaimer

ORBIFLY MET'MAP TEAM :

Programming & Development : Alexandra Zaïnal
Concept & Development : Baudouin d'Aumeries
Co-Development & Prog : Marc-Olivier Méhu
Technical & hardware support : Manuel Goepfert

Contact : metmap@orbifly.com




SOURCES & CREDITS :

   NOAA